createdAt,value
2023-01-02T00:00:04.501Z,12.70
2023-01-02T00:00:19.098Z,12.70
2023-01-02T00:00:23.336Z,12.60
2023-01-02T00:00:32.804Z,12.60
2023-01-02T00:00:42.188Z,12.60
2023-01-02T00:00:51.868Z,12.60
2023-01-02T00:01:01.332Z,12.60
2023-01-02T00:01:10.633Z,12.60
2023-01-02T00:01:20.034Z,12.60
2023-01-02T00:01:29.468Z,12.60
2023-01-02T00:01:38.866Z,12.60
2023-01-02T00:01:48.329Z,12.60
2023-01-02T00:01:57.775Z,12.60
2023-01-02T00:02:07.183Z,12.60
2023-01-02T00:02:16.691Z,12.60
2023-01-02T00:02:26.161Z,12.60
2023-01-02T00:02:35.616Z,12.60
2023-01-02T00:02:54.389Z,12.60
2023-01-02T00:03:03.787Z,12.60
2023-01-02T00:03:13.198Z,12.60
2023-01-02T00:03:22.709Z,12.60
2023-01-02T00:03:32.129Z,12.70
2023-01-02T00:03:41.537Z,12.70
2023-01-02T00:03:51.286Z,12.70
2023-01-02T00:04:00.781Z,12.70
2023-01-02T00:04:10.010Z,12.70
2023-01-02T00:04:19.424Z,12.70
2023-01-02T00:04:28.835Z,12.70
2023-01-02T00:04:38.238Z,12.70
2023-01-02T00:04:47.699Z,12.70
2023-01-02T00:04:57.135Z,12.70
2023-01-02T00:05:06.522Z,12.70
2023-01-02T00:05:15.937Z,12.70
2023-01-02T00:05:25.651Z,12.70
2023-01-02T00:05:44.469Z,12.70
2023-01-02T00:05:53.877Z,12.70
2023-01-02T00:06:03.333Z,12.70
2023-01-02T00:06:12.762Z,12.70
2023-01-02T00:06:22.148Z,12.70
2023-01-02T00:06:31.664Z,12.60
2023-01-02T00:06:41.091Z,12.60
2023-01-02T00:06:50.666Z,12.70
2023-01-02T00:07:00.073Z,12.60
2023-01-02T00:07:09.492Z,12.60
2023-01-02T00:07:18.869Z,12.60
2023-01-02T00:07:28.281Z,12.60
2023-01-02T00:07:37.683Z,12.60
2023-01-02T00:07:47.105Z,12.60
2023-01-02T00:07:56.508Z,12.60
2023-01-02T00:08:05.913Z,12.70
2023-01-02T00:08:24.718Z,12.60
2023-01-02T00:08:34.137Z,12.70
2023-01-02T00:08:43.601Z,12.60
2023-01-02T00:08:53.011Z,12.70
2023-01-02T00:09:02.448Z,12.60
2023-01-02T00:09:11.845Z,12.60
2023-01-02T00:09:21.484Z,12.60
2023-01-02T00:09:30.887Z,12.70
2023-01-02T00:09:40.291Z,12.60
2023-01-02T00:09:49.686Z,12.60
2023-01-02T00:10:01.427Z,12.60
2023-01-02T00:10:10.809Z,12.70
2023-01-02T00:10:20.234Z,12.70
2023-01-02T00:10:29.634Z,12.70
2023-01-02T00:10:39.042Z,12.70
2023-01-02T00:10:52.666Z,12.70
2023-01-02T00:10:57.877Z,12.70
2023-01-02T00:11:07.317Z,12.70
2023-01-02T00:11:16.716Z,12.70
2023-01-02T00:11:26.111Z,12.70
2023-01-02T00:11:35.530Z,12.70
2023-01-02T00:11:54.345Z,12.60
2023-01-02T00:12:03.750Z,12.60
2023-01-02T00:12:13.185Z,12.60
2023-01-02T00:12:22.745Z,12.60
2023-01-02T00:12:32.147Z,12.60
2023-01-02T00:12:41.555Z,12.60
2023-01-02T00:12:50.957Z,12.60
2023-01-02T00:13:00.363Z,12.60
2023-01-02T00:13:09.769Z,12.60
2023-01-02T00:13:19.229Z,12.60
2023-01-02T00:13:28.655Z,12.60
2023-01-02T00:13:38.056Z,12.60
2023-01-02T00:13:47.465Z,12.60
2023-01-02T00:13:56.871Z,12.50
2023-01-02T00:14:06.288Z,12.50
2023-01-02T00:14:15.956Z,12.50
2023-01-02T00:14:34.780Z,12.50
2023-01-02T00:14:44.201Z,12.50
2023-01-02T00:14:53.596Z,12.50
2023-01-02T00:15:03.016Z,12.50
2023-01-02T00:15:12.458Z,12.50
2023-01-02T00:15:22.940Z,12.50
2023-01-02T00:15:32.352Z,12.50
2023-01-02T00:15:41.920Z,12.50
2023-01-02T00:15:51.276Z,12.50
2023-01-02T00:16:00.653Z,12.50
2023-01-02T00:16:10.124Z,12.50
2023-01-02T00:16:19.447Z,12.40
2023-01-02T00:16:28.869Z,12.50
2023-01-02T00:16:38.313Z,12.50
2023-01-02T00:16:47.677Z,12.50
2023-01-02T00:16:57.091Z,12.50
2023-01-02T00:17:06.492Z,12.50
2023-01-02T00:17:15.927Z,12.50
2023-01-02T00:17:34.747Z,12.40
2023-01-02T00:17:44.150Z,12.50
2023-01-02T00:17:53.569Z,12.40
2023-01-02T00:18:02.971Z,12.40
2023-01-02T00:18:12.393Z,12.50
2023-01-02T00:18:21.788Z,12.40
2023-01-02T00:18:31.202Z,12.40
2023-01-02T00:18:40.641Z,12.40
2023-01-02T00:18:50.059Z,12.40
2023-01-02T00:18:59.461Z,12.40
2023-01-02T00:19:08.895Z,12.40
2023-01-02T00:19:18.302Z,12.50
2023-01-02T00:19:27.723Z,12.50
2023-01-02T00:19:37.154Z,12.50
2023-01-02T00:19:46.567Z,12.50
2023-01-02T00:19:55.993Z,12.50
2023-01-02T00:20:05.419Z,12.50
2023-01-02T00:20:24.201Z,12.50
2023-01-02T00:20:33.620Z,12.50
2023-01-02T00:20:43.029Z,12.50
2023-01-02T00:20:52.466Z,12.50
2023-01-02T00:21:01.872Z,12.50
2023-01-02T00:21:11.325Z,12.50
2023-01-02T00:21:20.725Z,12.50
2023-01-02T00:21:30.142Z,12.50
2023-01-02T00:21:39.620Z,12.50
2023-01-02T00:21:49.084Z,12.50
2023-01-02T00:21:58.510Z,12.50
2023-01-02T00:22:07.928Z,12.50
2023-01-02T00:22:17.367Z,12.50
2023-01-02T00:22:26.756Z,12.50
2023-01-02T00:22:36.151Z,12.50
2023-01-02T00:22:45.570Z,12.50
2023-01-02T00:23:04.405Z,12.50
2023-01-02T00:23:13.823Z,12.50
2023-01-02T00:23:23.224Z,12.50
2023-01-02T00:23:32.638Z,12.50
2023-01-02T00:23:42.049Z,12.50
2023-01-02T00:23:51.466Z,12.50
2023-01-02T00:24:00.901Z,12.50
2023-01-02T00:24:10.308Z,12.50
2023-01-02T00:24:19.727Z,12.50
2023-01-02T00:24:29.169Z,12.50
2023-01-02T00:24:38.578Z,12.50
2023-01-02T00:24:47.998Z,12.50
2023-01-02T00:24:57.408Z,12.50
2023-01-02T00:25:06.810Z,12.50
2023-01-02T00:25:16.194Z,12.50
2023-01-02T00:25:25.624Z,12.50
2023-01-02T00:25:44.462Z,12.50
2023-01-02T00:25:53.884Z,12.50
2023-01-02T00:26:03.260Z,12.50
2023-01-02T00:26:12.677Z,12.50
2023-01-02T00:26:22.215Z,12.50
2023-01-02T00:26:31.620Z,12.50
2023-01-02T00:26:41.011Z,12.50
2023-01-02T00:26:50.438Z,12.50
2023-01-02T00:26:59.864Z,12.50
2023-01-02T00:27:09.287Z,12.50
2023-01-02T00:27:18.674Z,12.40
2023-01-02T00:27:28.087Z,12.50
2023-01-02T00:27:37.513Z,12.40
2023-01-02T00:27:46.935Z,12.40
2023-01-02T00:27:56.356Z,12.40
2023-01-02T00:28:05.808Z,12.40
2023-01-02T00:28:24.623Z,12.40
2023-01-02T00:28:34.013Z,12.40
2023-01-02T00:28:43.422Z,12.40
2023-01-02T00:28:52.844Z,12.40
2023-01-02T00:29:02.247Z,12.40
2023-01-02T00:29:11.673Z,12.40
2023-01-02T00:29:21.067Z,12.40
2023-01-02T00:29:30.496Z,12.40
2023-01-02T00:29:39.888Z,12.40
2023-01-02T00:29:49.312Z,12.40
2023-01-02T00:29:58.755Z,12.40
2023-01-02T00:30:08.145Z,12.40
2023-01-02T00:30:17.528Z,12.40
2023-01-02T00:30:31.013Z,12.40
2023-01-02T00:30:38.628Z,12.40
2023-01-02T00:30:45.780Z,12.50
2023-01-02T00:31:04.633Z,12.50
2023-01-02T00:31:14.164Z,12.50
2023-01-02T00:31:23.460Z,12.50
2023-01-02T00:31:32.966Z,12.50
2023-01-02T00:31:42.316Z,12.50
2023-01-02T00:31:51.640Z,12.50
2023-01-02T00:32:01.059Z,12.50
2023-01-02T00:32:10.453Z,12.50
2023-01-02T00:32:19.878Z,12.50
2023-01-02T00:32:29.287Z,12.50
2023-01-02T00:32:38.719Z,12.50
2023-01-02T00:32:48.110Z,12.50
2023-01-02T00:32:57.515Z,12.50
2023-01-02T00:33:06.915Z,12.50
2023-01-02T00:33:16.293Z,12.50
2023-01-02T00:33:25.722Z,12.50
2023-01-02T00:33:47.377Z,12.50
2023-01-02T00:33:56.807Z,12.50
2023-01-02T00:34:06.282Z,12.50
2023-01-02T00:34:15.695Z,12.50
2023-01-02T00:34:25.073Z,12.60
2023-01-02T00:34:34.482Z,12.60
2023-01-02T00:34:43.897Z,12.60
2023-01-02T00:34:53.274Z,12.60
2023-01-02T00:35:02.721Z,12.60
2023-01-02T00:35:12.158Z,12.60
2023-01-02T00:35:21.531Z,12.60
2023-01-02T00:35:30.949Z,12.60
2023-01-02T00:35:40.343Z,12.60
2023-01-02T00:35:49.750Z,12.60
2023-01-02T00:35:59.133Z,12.60
2023-01-02T00:36:08.558Z,12.60
2023-01-02T00:36:17.962Z,12.60
2023-01-02T00:36:27.363Z,12.60
2023-01-02T00:36:36.768Z,12.60
2023-01-02T00:36:46.170Z,12.60
2023-01-02T00:36:55.602Z,12.60
2023-01-02T00:37:14.472Z,12.60
2023-01-02T00:37:23.868Z,12.60
2023-01-02T00:37:33.298Z,12.60
2023-01-02T00:37:42.709Z,12.60
2023-01-02T00:37:52.113Z,12.60
2023-01-02T00:38:01.515Z,12.60
2023-01-02T00:38:10.907Z,12.60
2023-01-02T00:38:20.298Z,12.60
2023-01-02T00:38:29.713Z,12.60
2023-01-02T00:38:39.120Z,12.60
2023-01-02T00:38:48.523Z,12.60
2023-01-02T00:38:57.943Z,12.60
2023-01-02T00:39:07.332Z,12.60
2023-01-02T00:39:16.759Z,12.60
2023-01-02T00:39:26.523Z,12.60
2023-01-02T00:39:35.579Z,12.70
2023-01-02T00:39:54.352Z,12.60
2023-01-02T00:40:03.754Z,12.60
2023-01-02T00:40:13.173Z,12.60
2023-01-02T00:40:22.610Z,12.60
2023-01-02T00:40:32.018Z,12.60
2023-01-02T00:40:41.424Z,12.60
2023-01-02T00:40:50.829Z,12.60
2023-01-02T00:41:00.240Z,12.60
2023-01-02T00:41:09.706Z,12.70
2023-01-02T00:41:19.113Z,12.60
2023-01-02T00:41:28.501Z,12.60
2023-01-02T00:41:37.910Z,12.60
2023-01-02T00:41:47.336Z,12.60
2023-01-02T00:41:56.771Z,12.60
2023-01-02T00:42:06.180Z,12.60
2023-01-02T00:42:15.597Z,12.60
2023-01-02T00:42:34.436Z,12.60
2023-01-02T00:42:43.879Z,12.60
2023-01-02T00:42:53.275Z,12.60
2023-01-02T00:43:02.756Z,12.60
2023-01-02T00:43:12.157Z,12.60
2023-01-02T00:43:21.541Z,12.60
2023-01-02T00:43:30.970Z,12.60
2023-01-02T00:43:40.397Z,12.60
2023-01-02T00:43:49.763Z,12.60
2023-01-02T00:43:59.187Z,12.60
2023-01-02T00:44:08.628Z,12.60
2023-01-02T00:44:18.027Z,12.60
2023-01-02T00:44:27.456Z,12.60
2023-01-02T00:44:36.939Z,12.60
2023-01-02T00:44:46.352Z,12.60
2023-01-02T00:44:55.766Z,12.60
2023-01-02T00:45:14.595Z,12.60
2023-01-02T00:45:23.995Z,12.60
2023-01-02T00:45:33.384Z,12.60
2023-01-02T00:45:42.766Z,12.60
2023-01-02T00:45:52.173Z,12.60
2023-01-02T00:46:04.911Z,12.60
2023-01-02T00:46:12.239Z,12.60
2023-01-02T00:46:20.527Z,12.60
2023-01-02T00:46:29.900Z,12.60
2023-01-02T00:46:39.246Z,12.60
2023-01-02T00:46:48.624Z,12.60
2023-01-02T00:46:58.057Z,12.60
2023-01-02T00:47:07.464Z,12.60
2023-01-02T00:47:16.809Z,12.60
2023-01-02T00:47:26.218Z,12.60
2023-01-02T00:47:35.629Z,12.60
2023-01-02T00:47:54.446Z,12.60
2023-01-02T00:48:03.822Z,12.60
2023-01-02T00:48:13.240Z,12.60
2023-01-02T00:48:22.650Z,12.60
2023-01-02T00:48:32.066Z,12.60
2023-01-02T00:48:41.503Z,12.60
2023-01-02T00:48:50.892Z,12.60
2023-01-02T00:49:00.318Z,12.70
2023-01-02T00:49:09.712Z,12.70
2023-01-02T00:49:19.134Z,12.70
2023-01-02T00:49:28.554Z,12.70
2023-01-02T00:49:37.955Z,12.60
2023-01-02T00:49:47.390Z,12.60
2023-01-02T00:49:56.860Z,12.60
2023-01-02T00:50:06.272Z,12.60
2023-01-02T00:50:15.693Z,12.60
2023-01-02T00:50:34.504Z,12.60
2023-01-02T00:50:43.935Z,12.60
2023-01-02T00:50:53.333Z,12.60
2023-01-02T00:51:02.768Z,12.60
2023-01-02T00:51:12.186Z,12.60
2023-01-02T00:51:21.607Z,12.60
2023-01-02T00:51:31.004Z,12.60
2023-01-02T00:51:40.405Z,12.60
2023-01-02T00:51:49.783Z,12.60
2023-01-02T00:51:59.175Z,12.60
2023-01-02T00:52:08.565Z,12.60
2023-01-02T00:52:17.963Z,12.60
2023-01-02T00:52:27.422Z,12.60
2023-01-02T00:52:36.820Z,12.60
2023-01-02T00:52:46.215Z,12.60
2023-01-02T00:52:55.609Z,12.60
2023-01-02T00:53:14.426Z,12.60
2023-01-02T00:53:23.814Z,12.60
2023-01-02T00:53:33.237Z,12.60
2023-01-02T00:53:42.641Z,12.60
2023-01-02T00:53:52.061Z,12.60
2023-01-02T00:54:01.543Z,12.60
2023-01-02T00:54:10.932Z,12.60
2023-01-02T00:54:20.350Z,12.60
2023-01-02T00:54:29.731Z,12.60
2023-01-02T00:54:39.146Z,12.70
2023-01-02T00:54:48.538Z,12.70
2023-01-02T00:54:57.946Z,12.70
2023-01-02T00:55:07.335Z,12.70
2023-01-02T00:55:16.745Z,12.70
2023-01-02T00:55:26.169Z,12.70
2023-01-02T00:55:35.575Z,12.70
2023-01-02T00:55:54.389Z,12.70
2023-01-02T00:56:03.823Z,12.70
2023-01-02T00:56:13.213Z,12.70
2023-01-02T00:56:22.621Z,12.70
2023-01-02T00:56:32.023Z,12.70
2023-01-02T00:56:41.428Z,12.70
2023-01-02T00:56:50.853Z,12.70
2023-01-02T00:57:00.276Z,12.70
2023-01-02T00:57:09.715Z,12.70
2023-01-02T00:57:19.117Z,12.70
2023-01-02T00:57:28.498Z,12.70
2023-01-02T00:57:37.879Z,12.70
2023-01-02T00:57:47.281Z,12.70
2023-01-02T00:57:56.731Z,12.70
2023-01-02T00:58:06.153Z,12.70
2023-01-02T00:58:15.555Z,12.70
2023-01-02T00:58:34.333Z,12.70
2023-01-02T00:58:43.714Z,12.70
2023-01-02T00:58:53.294Z,12.70
2023-01-02T00:59:04.652Z,12.70
2023-01-02T00:59:14.067Z,12.70
2023-01-02T00:59:23.459Z,12.70
2023-01-02T00:59:32.897Z,12.70
2023-01-02T00:59:42.289Z,12.70
2023-01-02T00:59:51.698Z,12.70
2023-01-02T01:00:01.114Z,12.70
2023-01-02T01:00:10.551Z,12.70
2023-01-02T01:00:23.848Z,12.70
2023-01-02T01:00:29.452Z,12.70
2023-01-02T01:00:38.807Z,12.80
2023-01-02T01:00:48.164Z,12.80
2023-01-02T01:00:57.700Z,12.80
2023-01-02T01:01:07.092Z,12.80
2023-01-02T01:01:16.591Z,12.80
2023-01-02T01:01:25.992Z,12.80
2023-01-02T01:01:44.917Z,12.80
2023-01-02T01:01:54.227Z,12.70
2023-01-02T01:02:03.685Z,12.70
2023-01-02T01:02:13.012Z,12.70
2023-01-02T01:02:22.429Z,12.70
2023-01-02T01:02:31.932Z,12.80
2023-01-02T01:02:41.219Z,12.90
2023-01-02T01:02:50.631Z,12.80
2023-01-02T01:03:00.103Z,12.80
2023-01-02T01:03:09.476Z,12.80
2023-01-02T01:03:18.824Z,12.80
2023-01-02T01:03:28.208Z,12.80
2023-01-02T01:03:37.613Z,12.80
2023-01-02T01:03:47.008Z,12.80
2023-01-02T01:03:56.417Z,12.80
2023-01-02T01:04:05.847Z,12.80
2023-01-02T01:04:24.659Z,12.80
2023-01-02T01:04:34.075Z,12.70
2023-01-02T01:04:43.498Z,12.80
2023-01-02T01:04:52.896Z,12.70
2023-01-02T01:05:02.289Z,12.70
2023-01-02T01:05:11.708Z,12.70
2023-01-02T01:05:21.120Z,12.70
2023-01-02T01:05:30.530Z,12.70
2023-01-02T01:05:39.938Z,12.70
2023-01-02T01:05:49.348Z,12.70
2023-01-02T01:05:58.745Z,12.70
2023-01-02T01:06:08.154Z,12.60
2023-01-02T01:06:17.552Z,12.70
2023-01-02T01:06:26.973Z,12.70
2023-01-02T01:06:36.371Z,12.70
2023-01-02T01:06:45.794Z,12.70
2023-01-02T01:07:04.582Z,12.70
2023-01-02T01:07:13.991Z,12.60
2023-01-02T01:07:23.376Z,12.60
2023-01-02T01:07:32.786Z,12.60
2023-01-02T01:07:42.190Z,12.60
2023-01-02T01:07:51.597Z,12.60
2023-01-02T01:08:01.018Z,12.60
2023-01-02T01:08:10.439Z,12.60
2023-01-02T01:08:19.867Z,12.60
2023-01-02T01:08:29.274Z,12.60
2023-01-02T01:08:38.668Z,12.60
2023-01-02T01:08:48.063Z,12.60
2023-01-02T01:08:57.464Z,12.60
2023-01-02T01:09:06.890Z,12.60
2023-01-02T01:09:16.294Z,12.60
2023-01-02T01:09:25.715Z,12.60
2023-01-02T01:09:44.578Z,12.60
2023-01-02T01:09:53.986Z,12.60
2023-01-02T01:10:03.375Z,12.60
2023-01-02T01:10:12.807Z,12.70
2023-01-02T01:10:22.189Z,12.70
2023-01-02T01:10:31.607Z,12.60
2023-01-02T01:10:41.011Z,12.70
2023-01-02T01:10:50.397Z,12.70
2023-01-02T01:10:59.796Z,12.70
2023-01-02T01:11:09.216Z,12.70
2023-01-02T01:11:18.619Z,12.70
2023-01-02T01:11:28.060Z,12.70
2023-01-02T01:11:37.443Z,12.70
2023-01-02T01:11:46.871Z,12.70
2023-01-02T01:11:56.253Z,12.70
2023-01-02T01:12:05.636Z,12.70
2023-01-02T01:12:24.447Z,12.70
2023-01-02T01:12:33.836Z,12.70
2023-01-02T01:12:43.231Z,12.70
2023-01-02T01:12:52.657Z,12.70
2023-01-02T01:13:02.060Z,12.70
2023-01-02T01:13:11.489Z,12.80
2023-01-02T01:13:20.877Z,12.70
2023-01-02T01:13:30.302Z,12.70
2023-01-02T01:13:39.707Z,12.70
2023-01-02T01:13:49.125Z,12.70
2023-01-02T01:13:58.511Z,12.70
2023-01-02T01:14:07.949Z,12.70
2023-01-02T01:14:17.367Z,12.70
2023-01-02T01:14:26.770Z,12.70
2023-01-02T01:14:36.173Z,12.70
2023-01-02T01:14:45.604Z,12.70
2023-01-02T01:15:04.415Z,12.80
2023-01-02T01:15:13.810Z,12.80
2023-01-02T01:15:23.231Z,12.80
2023-01-02T01:15:32.613Z,12.80
2023-01-02T01:15:42.038Z,12.80
2023-01-02T01:15:51.588Z,12.80
2023-01-02T01:16:00.956Z,12.80
2023-01-02T01:16:10.347Z,12.80
2023-01-02T01:16:19.781Z,12.80
2023-01-02T01:16:29.248Z,12.80
2023-01-02T01:16:38.696Z,12.80
2023-01-02T01:16:48.006Z,12.80
2023-01-02T01:16:57.412Z,12.80
2023-01-02T01:17:06.812Z,12.80
2023-01-02T01:17:16.205Z,12.80
2023-01-02T01:17:25.600Z,12.80
2023-01-02T01:17:44.428Z,12.80
2023-01-02T01:17:53.859Z,12.80
2023-01-02T01:18:03.277Z,12.80
2023-01-02T01:18:12.687Z,12.80
2023-01-02T01:18:22.111Z,12.80
2023-01-02T01:18:31.548Z,12.80
2023-01-02T01:18:40.947Z,12.80
2023-01-02T01:18:50.400Z,12.80
2023-01-02T01:18:59.805Z,12.80
2023-01-02T01:19:09.253Z,12.80
2023-01-02T01:19:18.649Z,12.70
2023-01-02T01:19:28.066Z,12.70
2023-01-02T01:19:37.494Z,12.70
2023-01-02T01:19:46.879Z,12.80
2023-01-02T01:19:56.280Z,12.70
2023-01-02T01:20:05.692Z,12.70
2023-01-02T01:20:24.497Z,12.70
2023-01-02T01:20:33.906Z,12.70
2023-01-02T01:20:43.288Z,12.70
2023-01-02T01:20:52.698Z,12.70
2023-01-02T01:21:02.099Z,12.70
2023-01-02T01:21:11.556Z,12.70
2023-01-02T01:21:20.907Z,12.70
2023-01-02T01:21:30.301Z,12.70
2023-01-02T01:21:39.702Z,12.80
2023-01-02T01:21:49.095Z,12.70
2023-01-02T01:21:58.529Z,12.80
2023-01-02T01:22:07.969Z,12.80
2023-01-02T01:22:17.394Z,12.80
2023-01-02T01:22:26.829Z,12.80
2023-01-02T01:22:36.237Z,12.80
2023-01-02T01:22:45.653Z,12.80
2023-01-02T01:23:04.474Z,12.80
2023-01-02T01:23:13.878Z,12.80
2023-01-02T01:23:23.274Z,12.80
2023-01-02T01:23:32.673Z,12.80
2023-01-02T01:23:42.113Z,12.80
2023-01-02T01:23:51.589Z,12.80
2023-01-02T01:24:00.971Z,12.80
2023-01-02T01:24:10.505Z,12.80
2023-01-02T01:24:19.901Z,12.80
2023-01-02T01:24:29.321Z,12.80
2023-01-02T01:24:38.725Z,12.80
2023-01-02T01:24:48.135Z,12.80
2023-01-02T01:24:57.520Z,12.80
2023-01-02T01:25:06.939Z,12.70
2023-01-02T01:25:16.403Z,12.80
2023-01-02T01:25:25.823Z,12.80
2023-01-02T01:25:44.624Z,12.80
2023-01-02T01:25:54.037Z,12.80
2023-01-02T01:26:03.448Z,12.80
2023-01-02T01:26:12.865Z,12.80
2023-01-02T01:26:22.277Z,12.80
2023-01-02T01:26:31.689Z,12.80
2023-01-02T01:26:41.096Z,12.80
2023-01-02T01:26:50.519Z,12.80
2023-01-02T01:26:59.929Z,12.70
2023-01-02T01:27:09.380Z,12.70
2023-01-02T01:27:18.799Z,12.80
2023-01-02T01:27:28.194Z,12.80
2023-01-02T01:27:37.618Z,12.80
2023-01-02T01:27:47.003Z,12.80
2023-01-02T01:27:56.442Z,12.80
2023-01-02T01:28:05.867Z,12.80
2023-01-02T01:28:24.921Z,12.80
2023-01-02T01:28:34.349Z,12.70
2023-01-02T01:28:43.733Z,12.80
2023-01-02T01:28:53.158Z,12.70
2023-01-02T01:29:02.577Z,12.70
2023-01-02T01:29:12.029Z,12.70
2023-01-02T01:29:21.450Z,12.70
2023-01-02T01:29:30.847Z,12.70
2023-01-02T01:29:40.225Z,12.70
2023-01-02T01:29:49.619Z,12.70
2023-01-02T01:29:59.028Z,12.70
2023-01-02T01:30:08.478Z,12.70
2023-01-02T01:30:17.899Z,12.70
2023-01-02T01:30:27.306Z,12.70
2023-01-02T01:30:36.704Z,12.70
2023-01-02T01:30:46.107Z,12.70
2023-01-02T01:30:55.528Z,12.70
2023-01-02T01:31:14.419Z,12.70
2023-01-02T01:31:23.997Z,12.70
2023-01-02T01:31:33.308Z,12.70
2023-01-02T01:31:42.697Z,12.70
2023-01-02T01:31:52.224Z,12.70
2023-01-02T01:32:01.708Z,12.70
2023-01-02T01:32:10.942Z,12.70
2023-01-02T01:32:20.360Z,12.70
2023-01-02T01:32:29.760Z,12.70
2023-01-02T01:32:39.201Z,12.70
2023-01-02T01:32:48.611Z,12.70
2023-01-02T01:32:58.034Z,12.70
2023-01-02T01:33:07.436Z,12.70
2023-01-02T01:33:16.839Z,12.70
2023-01-02T01:33:26.264Z,12.70
2023-01-02T01:33:35.668Z,12.70
2023-01-02T01:33:54.530Z,12.70
2023-01-02T01:34:03.950Z,12.70
2023-01-02T01:34:13.663Z,12.70
2023-01-02T01:34:23.071Z,12.70
2023-01-02T01:34:32.582Z,12.70
2023-01-02T01:34:42.022Z,12.70
2023-01-02T01:34:51.525Z,12.70
2023-01-02T01:35:00.933Z,12.60
2023-01-02T01:35:10.346Z,12.70
2023-01-02T01:35:19.821Z,12.70
2023-01-02T01:35:29.234Z,12.70
2023-01-02T01:35:38.640Z,12.70
2023-01-02T01:35:48.070Z,12.70
2023-01-02T01:35:57.481Z,12.70
2023-01-02T01:36:06.871Z,12.70
2023-01-02T01:36:16.299Z,12.70
2023-01-02T01:36:25.680Z,12.70
2023-01-02T01:36:44.470Z,12.70
2023-01-02T01:36:53.873Z,12.70
2023-01-02T01:37:03.290Z,12.70
2023-01-02T01:37:12.696Z,12.70
2023-01-02T01:37:22.084Z,12.70
2023-01-02T01:37:31.525Z,12.70
2023-01-02T01:37:40.926Z,12.70
2023-01-02T01:37:50.311Z,12.70
2023-01-02T01:37:59.705Z,12.70
2023-01-02T01:38:09.137Z,12.70
2023-01-02T01:38:18.542Z,12.70
2023-01-02T01:38:27.928Z,12.70
2023-01-02T01:38:37.342Z,12.70
2023-01-02T01:38:46.788Z,12.70
2023-01-02T01:38:56.245Z,12.80
2023-01-02T01:39:05.657Z,12.80
2023-01-02T01:39:24.491Z,12.80
2023-01-02T01:39:33.898Z,12.80
2023-01-02T01:39:43.336Z,12.80
2023-01-02T01:39:56.525Z,12.80
2023-01-02T01:40:02.244Z,12.70
2023-01-02T01:40:11.643Z,12.70
2023-01-02T01:40:21.054Z,12.70
2023-01-02T01:40:30.467Z,12.80
2023-01-02T01:40:39.858Z,12.80
2023-01-02T01:40:49.254Z,12.80
2023-01-02T01:40:58.670Z,12.80
2023-01-02T01:41:08.099Z,12.80
2023-01-02T01:41:17.544Z,12.80
2023-01-02T01:41:26.923Z,12.70
2023-01-02T01:41:36.356Z,12.70
2023-01-02T01:41:45.785Z,12.70
2023-01-02T01:42:04.593Z,12.70
2023-01-02T01:42:14.017Z,12.70
2023-01-02T01:42:23.424Z,12.70
2023-01-02T01:42:32.858Z,12.70
2023-01-02T01:42:42.267Z,12.70
2023-01-02T01:42:53.939Z,12.70
2023-01-02T01:43:01.318Z,12.70
2023-01-02T01:43:10.555Z,12.70
2023-01-02T01:43:20.027Z,12.70
2023-01-02T01:43:29.425Z,12.70
2023-01-02T01:43:38.843Z,12.70
2023-01-02T01:43:48.285Z,12.70
2023-01-02T01:43:57.711Z,12.70
2023-01-02T01:44:07.111Z,12.70
2023-01-02T01:44:16.521Z,12.70
2023-01-02T01:44:25.936Z,12.70
2023-01-02T01:44:44.788Z,12.70
2023-01-02T01:44:54.186Z,12.70
2023-01-02T01:45:03.642Z,12.70
2023-01-02T01:45:13.050Z,12.70
2023-01-02T01:45:22.467Z,12.70
2023-01-02T01:45:31.917Z,12.70
2023-01-02T01:45:41.362Z,12.70
2023-01-02T01:45:50.799Z,12.70
2023-01-02T01:46:00.249Z,12.70
2023-01-02T01:46:09.657Z,12.70
2023-01-02T01:46:18.988Z,12.70
2023-01-02T01:46:28.385Z,12.70
2023-01-02T01:46:37.886Z,12.70
2023-01-02T01:46:47.301Z,12.70
2023-01-02T01:46:56.692Z,12.70
2023-01-02T01:47:06.124Z,12.70
2023-01-02T01:47:15.515Z,12.70
2023-01-02T01:47:34.353Z,12.70
2023-01-02T01:47:43.804Z,12.70
2023-01-02T01:47:53.186Z,12.70
2023-01-02T01:48:02.613Z,12.70
2023-01-02T01:48:12.027Z,12.70
2023-01-02T01:48:21.448Z,12.70
2023-01-02T01:48:30.870Z,12.70
2023-01-02T01:48:40.300Z,12.70
2023-01-02T01:48:49.719Z,12.70
2023-01-02T01:48:59.104Z,12.70
2023-01-02T01:49:08.533Z,12.70
2023-01-02T01:49:18.000Z,12.70
2023-01-02T01:49:27.402Z,12.70
2023-01-02T01:49:36.818Z,12.70
2023-01-02T01:49:46.239Z,12.70
2023-01-02T01:49:58.601Z,12.60
2023-01-02T01:50:14.538Z,12.70
2023-01-02T01:50:23.947Z,12.70
2023-01-02T01:50:33.338Z,12.70
2023-01-02T01:50:42.748Z,12.70
2023-01-02T01:50:52.163Z,12.70
2023-01-02T01:51:01.587Z,12.60
2023-01-02T01:51:11.000Z,12.70
2023-01-02T01:51:20.449Z,12.70
2023-01-02T01:51:29.866Z,12.70
2023-01-02T01:51:39.349Z,12.60
2023-01-02T01:51:48.752Z,12.70
2023-01-02T01:51:58.144Z,12.60
2023-01-02T01:52:07.540Z,12.60
2023-01-02T01:52:16.939Z,12.60
2023-01-02T01:52:26.394Z,12.60
2023-01-02T01:52:35.775Z,12.50
2023-01-02T01:52:54.653Z,12.50
2023-01-02T01:53:04.062Z,12.50
2023-01-02T01:53:13.528Z,12.50
2023-01-02T01:53:22.946Z,12.50
2023-01-02T01:53:32.328Z,12.50
2023-01-02T01:53:41.760Z,12.50
2023-01-02T01:53:51.145Z,12.50
2023-01-02T01:54:00.532Z,12.50
2023-01-02T01:54:09.951Z,12.50
2023-01-02T01:54:19.392Z,12.50
2023-01-02T01:54:28.775Z,12.50
2023-01-02T01:54:38.197Z,12.50
2023-01-02T01:54:47.601Z,12.50
2023-01-02T01:54:57.006Z,12.50
2023-01-02T01:55:06.437Z,12.50
2023-01-02T01:55:15.834Z,12.50
2023-01-02T01:55:34.669Z,12.50
2023-01-02T01:55:44.123Z,12.50
2023-01-02T01:55:53.519Z,12.50
2023-01-02T01:56:02.943Z,12.50
2023-01-02T01:56:12.368Z,12.50
2023-01-02T01:56:21.820Z,12.50
2023-01-02T01:56:31.240Z,12.50
2023-01-02T01:56:40.635Z,12.50
2023-01-02T01:56:50.044Z,12.50
2023-01-02T01:56:59.438Z,12.50
2023-01-02T01:57:08.849Z,12.50
2023-01-02T01:57:18.273Z,12.50
2023-01-02T01:57:27.690Z,12.50
2023-01-02T01:57:37.096Z,12.50
2023-01-02T01:57:46.506Z,12.50
2023-01-02T01:57:55.904Z,12.50
2023-01-02T01:58:14.722Z,12.50
2023-01-02T01:58:24.146Z,12.50
2023-01-02T01:58:33.547Z,12.40
2023-01-02T01:58:42.991Z,12.40
2023-01-02T01:58:52.394Z,12.40
2023-01-02T01:59:01.838Z,12.40
2023-01-02T01:59:11.218Z,12.40
2023-01-02T01:59:20.676Z,12.50
2023-01-02T01:59:30.098Z,12.40
2023-01-02T01:59:39.506Z,12.40
2023-01-02T01:59:48.896Z,12.40
2023-01-02T01:59:58.332Z,12.40
2023-01-02T02:00:07.722Z,12.40
2023-01-02T02:00:17.134Z,12.40
2023-01-02T02:00:26.558Z,12.40
2023-01-02T02:00:36.022Z,12.40
2023-01-02T02:00:45.526Z,12.40
2023-01-02T02:01:04.281Z,12.40
2023-01-02T02:01:13.881Z,12.40
2023-01-02T02:01:23.136Z,12.40
2023-01-02T02:01:32.688Z,12.40
2023-01-02T02:01:42.133Z,12.40
2023-01-02T02:01:51.554Z,12.40
2023-01-02T02:02:01.026Z,12.40
2023-01-02T02:02:10.417Z,12.40
2023-01-02T02:02:19.754Z,12.40
2023-01-02T02:02:29.145Z,12.40
2023-01-02T02:02:38.517Z,12.40
2023-01-02T02:02:47.961Z,12.40
2023-01-02T02:02:57.332Z,12.40
2023-01-02T02:03:06.737Z,12.40
2023-01-02T02:03:16.163Z,12.40
2023-01-02T02:03:25.472Z,12.30
2023-01-02T02:03:44.293Z,12.40
2023-01-02T02:03:53.711Z,12.40
2023-01-02T02:04:03.122Z,12.30
2023-01-02T02:04:12.543Z,12.30
2023-01-02T02:04:21.983Z,12.30
2023-01-02T02:04:31.455Z,12.30
2023-01-02T02:04:40.847Z,12.30
2023-01-02T02:04:50.265Z,12.30
2023-01-02T02:04:59.729Z,12.30
2023-01-02T02:05:09.137Z,12.40
2023-01-02T02:05:18.607Z,12.30
2023-01-02T02:05:28.024Z,12.30
2023-01-02T02:05:37.444Z,12.30
2023-01-02T02:05:46.852Z,12.30
2023-01-02T02:05:56.273Z,12.30
2023-01-02T02:06:05.691Z,12.40
2023-01-02T02:06:24.513Z,12.30
2023-01-02T02:06:33.924Z,12.30
2023-01-02T02:06:43.357Z,12.30
2023-01-02T02:06:52.767Z,12.30
2023-01-02T02:07:02.173Z,12.30
2023-01-02T02:07:11.590Z,12.20
2023-01-02T02:07:20.995Z,12.20
2023-01-02T02:07:30.416Z,12.20
2023-01-02T02:07:39.884Z,12.20
2023-01-02T02:07:49.294Z,12.10
2023-01-02T02:07:58.719Z,12.10
2023-01-02T02:08:08.136Z,12.10
2023-01-02T02:08:17.549Z,12.10
2023-01-02T02:08:27.027Z,12.00
2023-01-02T02:08:36.477Z,12.00